TimeEDT,TemperatureF,Dew PointF,Humidity,Sea Level PressureIn,VisibilityMPH,Wind Direction,Wind SpeedMPH,Gust SpeedMPH,PrecipitationIn,Events,Conditions,WindDirDegrees,DateUTC
12:14 AM,44.6,42.8,93,30.07,8.0,NNW,15.0,-,0.00,Rain,Light Rain,340,2012-10-06 04:14:00
12:52 AM,44.1,39.9,85,30.04,9.0,North,6.9,24.2,0.01,Rain,Light Rain,350,2012-10-06 04:52:00
1:13 AM,42.8,41.0,93,30.04,4.0,NNW,12.7,-,0.15,Rain,Heavy Rain,340,2012-10-06 05:13:00
1:33 AM,42.8,41.0,93,30.05,6.0,NNW,13.8,-,0.22,Rain,Light Rain,330,2012-10-06 05:33:00
1:45 AM,42.8,39.2,87,30.05,10.0,NNW,16.1,-,0.23,Rain,Light Rain,330,2012-10-06 05:45:00
1:52 AM,43.0,39.9,89,30.04,10.0,NNW,17.3,26.5,0.23,,Overcast,340,2012-10-06 05:52:00
2:52 AM,43.0,39.9,89,30.06,10.0,NW,10.4,-,0.00,,Overcast,320,2012-10-06 06:52:00
3:52 AM,43.0,39.9,89,30.06,10.0,NW,11.5,-,0.00,,Overcast,310,2012-10-06 07:52:00
4:49 AM,42.8,39.2,87,30.06,10.0,WNW,6.9,-,N/A,,Mostly Cloudy,300,2012-10-06 08:49:00
4:52 AM,42.1,39.0,89,30.06,10.0,NW,9.2,-,N/A,,Overcast,310,2012-10-06 08:52:00
5:52 AM,41.0,37.9,89,30.07,10.0,WNW,8.1,-,N/A,,Partly Cloudy,300,2012-10-06 09:52:00
6:52 AM,39.9,36.0,86,30.10,10.0,West,9.2,-,N/A,,Clear,280,2012-10-06 10:52:00
7:52 AM,37.9,36.0,93,30.12,6.0,West,5.8,-,N/A,,Scattered Clouds,270,2012-10-06 11:52:00
8:52 AM,39.9,36.0,86,30.15,9.0,West,8.1,-,N/A,,Scattered Clouds,280,2012-10-06 12:52:00
9:52 AM,43.0,36.0,76,30.17,10.0,WNW,9.2,-,N/A,,Scattered Clouds,290,2012-10-06 13:52:00
10:52 AM,45.0,37.0,74,30.17,10.0,WSW,5.8,-,N/A,,Scattered Clouds,250,2012-10-06 14:52:00
11:52 AM,50.0,36.0,59,30.15,10.0,WNW,8.1,-,N/A,,Scattered Clouds,300,2012-10-06 15:52:00
1:52 PM,52.0,33.1,49,30.11,10.0,Calm,Calm,-,N/A,,Mostly Cloudy,0,2012-10-06 17:52:00
2:52 PM,55.0,33.1,43,30.09,10.0,Variable,5.8,-,N/A,,Mostly Cloudy,0,2012-10-06 18:52:00
3:52 PM,55.0,28.0,35,30.09,10.0,West,5.8,17.3,N/A,,Mostly Cloudy,280,2012-10-06 19:52:00
4:52 PM,55.9,32.0,40,30.09,8.0,West,8.1,-,N/A,,Mostly Cloudy,260,2012-10-06 20:52:00
5:52 PM,54.0,30.0,40,30.10,10.0,WNW,9.2,-,N/A,,Mostly Cloudy,290,2012-10-06 21:52:00
6:52 PM,52.0,30.9,45,30.11,10.0,WNW,8.1,-,N/A,,Mostly Cloudy,300,2012-10-06 22:52:00
7:52 PM,51.1,34.0,52,30.13,10.0,WNW,5.8,-,N/A,,Mostly Cloudy,290,2012-10-06 23:52:00
8:52 PM,51.1,33.1,50,30.13,10.0,NW,8.1,-,N/A,,Mostly Cloudy,310,2012-10-07 00:52:00
9:52 PM,50.0,34.0,54,30.13,10.0,NW,8.1,-,N/A,,Overcast,320,2012-10-07 01:52:00
10:52 PM,50.0,35.1,57,30.14,10.0,NNW,9.2,-,N/A,,Overcast,340,2012-10-07 02:52:00
11:52 PM,48.0,35.1,61,30.13,10.0,North,9.2,-,N/A,,Overcast,360,2012-10-07 03:52:00